Stellar, Texas
Current Conditions -  °F | °C
As of 5:10 AM on Monday 22 Dec 2014 (Local Time) from K3T5 Reporting Station
Haze Haze  
Wind Chill: 59°   Ceiling: 300
Heat Index: 59°   Visibility: 2mi
Dew Point: 59°   Wind: 8mph
Humidity: 99%   Direction: 200°SSW
Pressure: 29.75"   Gusts: NA
Location:  29.7805°N, 97.1131°W
Report Text: K3T5 221110Z AUTO 20007KT 2SM BR OVC003 15/15 A2975 RMK AO2 T01510150
Loading
Personal Weather Stations






























Interactive Weather Map New forecast layout! Learn more

10-Day Weather Forecast

Advertisements
Track Severe Weather on mobile